Terminal Aerodrome Forecast
Issued by NWS

Current Version | Previous Version | Graphics & Text | Print | Product List | Glossary On
Versions: 1 2 3 4 5 6 7 8 9 10 11 12 13 14 15 16 17 18 19 20 21 22
000
FTUS41 KRLX 150231 AAA
TAFCKB
TAF AMD
KCKB 150231Z 1503/1524 20008KT P6SM BKN025
     FM150700 20007KT 6SM -DZ OVC008
     FM151200 22007KT P6SM BKN060 PROB30 1512/1516 6SM -SHRA BR
      OVC003=

USA.gov is the U.S. government's official web portal to all federal, state and local government web resources and services.